KHDN/HDN METAR and TAF weather

Enter ICAO airport designator
Station Type Date Time Source
KHDN METAR 2021/03/09 09:56 UTC NOAA

KHDN 090956Z AUTO VRB05KT 10SM CLR 04/M06 A2992 RMK AO2 SLP107 T00441061


Station Type Date Time Source
KHDN Decoded METAR 2021/03/09 09:56 UTC NOAA

Hayden, Yampa Valley Airport, CO, United States (KHDN) 40-29N 107-13W
Mar 09, 2021 - 04:56 AM EST / 2021.03.09 0956 UTC
Wind: Variable at 6 MPH (5 KT):0
Visibility: 10 mile(s):0
Sky conditions: clear
Temperature: 39.9 F (4.4 C)
Dew Point: 21.0 F (-6.1 C)
Relative Humidity: 46%
Pressure (altimeter): 29.92 in. Hg (1013 hPa)
ob: KHDN 090956Z AUTO VRB05KT 10SM CLR 04/M06 A2992 RMK AO2 SLP107 T00441061
cycle: 10

Station Type Date Time Source
KHDN TAF 2021/03/09 06:22 UTC NOAA

TAF KHDN 090520Z 0906/1006 10012KT P6SM SKC WS020/22030KT
FM091200 27006KT P6SM FEW250 WS020/24035KT
FM092100 20012G20KT P6SM FEW250

Example: see airport list